Impacts TAF Board
For situational awareness. Not to be used for flight planning purposes.
IDs:

KPDX - Portland Intl Arpt, OR, US

Issued at 0520 UTC 21 Sep 2018
Updated at 0800 UTC 21 Sep 2018
Potential Impact None Slight Moderate High
Time<<22/08Z 22/09Z 22/10Z 22/11Z 22/12Z 22/13Z 22/14Z 22/15Z 22/16Z 22/17Z 22/18Z 22/19Z 22/20Z
Type
VIS
CIG
Cover
FltCat
WX
WDir
WSpd
WGst
Raw TAF
KPDX 210520Z 2106/2206 VRB03KT P6SM SCT250
  FM211500 10005KT P6SM BKN250
  FM212100 14007KT P6SM OVC100
  FM220000 20010KT P6SM OVC100


METAR Board
Radar Display
Forecast Discussion
For situational awareness. Not to be used for flight planning purposes.